createdAt,value
2018-05-16T00:02:03.266Z,72.90
2018-05-16T00:04:30.731Z,73.60
2018-05-16T00:06:58.206Z,74.70
2018-05-16T00:09:25.687Z,75.10
2018-05-16T00:11:53.128Z,75.30
2018-05-16T00:14:21.399Z,76.20
2018-05-16T00:16:49.637Z,77.70
2018-05-16T00:19:17.105Z,76.80
2018-05-16T00:21:44.561Z,77.10
2018-05-16T00:24:12.035Z,77.60
2018-05-16T00:26:39.493Z,77.70
2018-05-16T00:29:06.950Z,76.90
2018-05-16T00:31:35.187Z,78.90
2018-05-16T00:34:02.645Z,78.20
2018-05-16T00:36:30.105Z,78.50
2018-05-16T00:38:57.561Z,79.40
2018-05-16T00:41:25.030Z,80.50
2018-05-16T00:43:52.492Z,80.70
2018-05-16T00:46:19.982Z,80.60
2018-05-16T00:48:47.437Z,80.90
2018-05-16T00:51:26.729Z,81.00
2018-05-16T00:53:54.201Z,81.10
2018-05-16T00:56:21.669Z,80.70
2018-05-16T00:58:49.132Z,79.60
2018-05-16T01:01:16.594Z,79.40
2018-05-16T01:03:44.058Z,79.50
2018-05-16T01:06:11.521Z,80.40
2018-05-16T01:08:38.986Z,80.50
2018-05-16T01:11:06.455Z,81.10
2018-05-16T01:13:33.913Z,81.70
2018-05-16T01:16:01.384Z,81.60
2018-05-16T01:18:28.841Z,81.70
2018-05-16T01:20:56.311Z,82.10
2018-05-16T01:23:23.893Z,82.00
2018-05-16T01:25:51.434Z,82.20
2018-05-16T01:28:19.698Z,81.70
2018-05-16T01:30:47.176Z,81.70
2018-05-16T01:33:14.633Z,81.90
2018-05-16T01:35:43.613Z,81.50
2018-05-16T01:38:11.073Z,81.40
2018-05-16T01:40:38.549Z,82.00
2018-05-16T01:43:06.221Z,82.40
2018-05-16T01:45:33.693Z,82.40
2018-05-16T01:48:01.150Z,82.10
2018-05-16T01:50:28.790Z,82.30
2018-05-16T01:52:56.287Z,82.30
2018-05-16T01:55:23.753Z,82.70
2018-05-16T01:57:51.361Z,83.10
2018-05-16T02:00:18.830Z,83.10
2018-05-16T02:02:46.290Z,83.70
2018-05-16T02:05:13.757Z,83.50
2018-05-16T02:07:41.222Z,84.40
2018-05-16T02:10:08.694Z,84.20
2018-05-16T02:12:36.157Z,83.80
2018-05-16T02:15:03.640Z,83.50
2018-05-16T02:17:31.110Z,84.00
2018-05-16T02:19:58.574Z,84.10
2018-05-16T02:22:26.027Z,83.70
2018-05-16T02:24:53.575Z,83.60
2018-05-16T02:27:21.786Z,83.00
2018-05-16T02:29:49.258Z,82.90
2018-05-16T02:32:16.723Z,83.40
2018-05-16T02:34:44.192Z,81.90
2018-05-16T02:37:11.655Z,82.80
2018-05-16T02:39:39.110Z,82.60
2018-05-16T02:42:06.587Z,82.30
2018-05-16T02:44:34.041Z,82.20
2018-05-16T02:47:01.547Z,82.60
2018-05-16T02:49:29.762Z,81.60
2018-05-16T02:51:57.238Z,81.50
2018-05-16T02:54:24.760Z,82.20
2018-05-16T02:56:52.937Z,82.40
2018-05-16T02:59:21.525Z,82.30
2018-05-16T03:01:49.012Z,82.60
2018-05-16T03:04:16.542Z,82.80
2018-05-16T03:06:44.781Z,81.70
2018-05-16T03:09:12.242Z,81.60
2018-05-16T03:11:39.726Z,82.10
2018-05-16T03:14:07.194Z,82.20
2018-05-16T03:16:34.641Z,82.40
2018-05-16T03:19:02.107Z,82.20
2018-05-16T03:21:29.566Z,82.20
2018-05-16T03:23:57.028Z,82.50
2018-05-16T03:26:24.485Z,83.10
2018-05-16T03:28:52.713Z,83.00
2018-05-16T03:31:20.169Z,83.00
2018-05-16T03:33:47.632Z,82.90
2018-05-16T03:36:15.117Z,83.10
2018-05-16T03:38:42.590Z,82.70
2018-05-16T03:41:10.051Z,82.40
2018-05-16T03:43:37.501Z,82.60
2018-05-16T03:46:04.974Z,83.00
2018-05-16T03:48:32.428Z,82.00
2018-05-16T03:50:59.889Z,82.40
2018-05-16T03:53:28.104Z,83.10
2018-05-16T03:55:55.573Z,83.00
2018-05-16T03:58:34.761Z,83.70
2018-05-16T04:01:14.188Z,83.60
2018-05-16T04:03:53.661Z,82.50
2018-05-16T04:06:21.124Z,82.00
2018-05-16T04:08:48.592Z,81.50
2018-05-16T04:11:18.397Z,81.50
2018-05-16T04:13:45.856Z,81.50
2018-05-16T04:16:13.341Z,81.60
2018-05-16T04:18:40.802Z,80.80
2018-05-16T04:21:08.261Z,79.50
2018-05-16T04:23:35.726Z,80.70
2018-05-16T04:26:03.192Z,80.60
2018-05-16T04:28:30.640Z,81.50
2018-05-16T04:30:58.112Z,82.60
2018-05-16T04:33:26.332Z,81.50
2018-05-16T04:35:53.820Z,81.50
2018-05-16T04:38:21.274Z,81.10
2018-05-16T04:40:48.737Z,81.10
2018-05-16T04:43:16.193Z,81.30
2018-05-16T04:45:43.661Z,81.60
2018-05-16T04:48:11.109Z,81.90
2018-05-16T04:50:39.349Z,81.70
2018-05-16T04:53:06.814Z,81.60
2018-05-16T04:55:34.286Z,82.40
2018-05-16T04:58:01.737Z,83.60
2018-05-16T05:00:29.184Z,83.60
2018-05-16T05:02:56.652Z,83.60
2018-05-16T05:05:24.161Z,82.90
2018-05-16T05:07:52.958Z,81.40
2018-05-16T05:10:20.436Z,81.50
2018-05-16T05:12:47.901Z,80.60
2018-05-16T05:15:15.360Z,81.70
2018-05-16T05:17:42.817Z,81.80
2018-05-16T05:20:10.285Z,81.80
2018-05-16T05:22:37.732Z,82.60
2018-05-16T05:25:05.191Z,83.10
2018-05-16T05:27:33.420Z,84.40
2018-05-16T05:30:00.971Z,84.40
2018-05-16T05:32:28.432Z,84.30
2018-05-16T05:34:55.933Z,84.60
2018-05-16T05:37:23.393Z,85.00
2018-05-16T05:39:50.841Z,84.50
2018-05-16T05:42:18.318Z,84.80
2018-05-16T05:44:45.770Z,84.80
2018-05-16T05:47:13.229Z,84.40
2018-05-16T05:49:41.457Z,84.00
2018-05-16T05:52:08.921Z,84.00
2018-05-16T05:54:36.438Z,83.50
2018-05-16T05:57:05.401Z,83.70
2018-05-16T05:59:32.862Z,83.60
2018-05-16T06:02:00.341Z,83.60
2018-05-16T06:04:27.801Z,82.10
2018-05-16T06:06:55.256Z,82.80
2018-05-16T06:09:22.785Z,81.60
2018-05-16T06:11:50.233Z,81.70
2018-05-16T06:14:17.710Z,81.80
2018-05-16T06:16:45.171Z,82.80
2018-05-16T06:19:12.668Z,82.60
2018-05-16T06:21:40.132Z,83.60
2018-05-16T06:24:07.596Z,84.50
2018-05-16T06:26:35.048Z,84.50
2018-05-16T06:29:02.522Z,84.00
2018-05-16T06:31:29.989Z,83.50
2018-05-16T06:33:57.447Z,82.10
2018-05-16T06:36:24.916Z,81.90
2018-05-16T06:38:52.534Z,82.50
2018-05-16T06:41:20.748Z,82.70
2018-05-16T06:43:48.221Z,82.60
2018-05-16T06:46:15.732Z,84.20
2018-05-16T06:48:43.915Z,83.60
2018-05-16T06:51:12.882Z,83.40
2018-05-16T06:53:40.333Z,83.40
2018-05-16T06:56:07.776Z,81.60
2018-05-16T06:58:36.015Z,82.20
2018-05-16T07:01:03.496Z,82.20
2018-05-16T07:03:30.953Z,81.70
2018-05-16T07:05:58.420Z,82.80
2018-05-16T07:08:25.876Z,83.60
2018-05-16T07:10:53.342Z,82.20
2018-05-16T07:13:20.792Z,81.70
2018-05-16T07:15:49.108Z,82.70
2018-05-16T07:18:16.555Z,82.70
2018-05-16T07:20:44.035Z,82.70
2018-05-16T07:23:11.481Z,83.20
2018-05-16T07:25:39.709Z,82.10
2018-05-16T07:28:07.166Z,81.90
2018-05-16T07:30:34.630Z,82.70
2018-05-16T07:33:02.100Z,82.40
2018-05-16T07:35:29.574Z,82.40
2018-05-16T07:37:57.013Z,79.60
2018-05-16T07:40:25.249Z,78.40
2018-05-16T07:42:52.685Z,78.20
2018-05-16T07:45:20.162Z,79.30
2018-05-16T07:47:47.614Z,78.90
2018-05-16T07:50:15.833Z,79.20
2018-05-16T07:52:43.285Z,79.20
2018-05-16T07:55:10.753Z,79.00
2018-05-16T07:57:38.226Z,78.80
2018-05-16T08:00:05.674Z,78.50
2018-05-16T08:02:33.893Z,77.10
2018-05-16T08:05:01.344Z,77.00
2018-05-16T08:07:28.797Z,77.00
2018-05-16T08:09:57.009Z,77.90
2018-05-16T08:12:24.469Z,77.80
2018-05-16T08:14:51.920Z,76.50
2018-05-16T08:17:20.154Z,76.30
2018-05-16T08:19:47.605Z,76.30
2018-05-16T08:22:15.066Z,77.20
2018-05-16T08:24:42.513Z,78.00
2018-05-16T08:27:10.802Z,78.00
2018-05-16T08:29:38.185Z,77.90
2018-05-16T08:32:05.638Z,77.80
2018-05-16T08:34:33.854Z,77.70
2018-05-16T08:37:01.314Z,77.60
2018-05-16T08:39:28.765Z,77.00
2018-05-16T08:41:56.984Z,74.20
2018-05-16T08:44:24.434Z,74.10
2018-05-16T08:46:51.894Z,73.30
2018-05-16T08:49:19.350Z,73.50
2018-05-16T08:51:47.574Z,74.40
2018-05-16T08:54:15.025Z,74.40
2018-05-16T08:56:42.489Z,71.90
2018-05-16T08:59:10.704Z,72.20
2018-05-16T09:01:38.170Z,72.10
2018-05-16T09:04:05.632Z,71.80
2018-05-16T09:06:33.070Z,71.70
2018-05-16T09:09:01.293Z,73.10
2018-05-16T09:11:28.749Z,73.10
2018-05-16T09:13:56.203Z,71.20
2018-05-16T09:16:24.414Z,70.60
2018-05-16T09:18:51.891Z,70.60
2018-05-16T09:21:19.338Z,69.10
2018-05-16T09:23:46.833Z,69.60
2018-05-16T09:26:14.279Z,69.20
2018-05-16T09:28:41.754Z,69.40
2018-05-16T09:31:09.210Z,69.70
2018-05-16T09:33:36.660Z,69.60
2018-05-16T09:36:04.872Z,67.80
2018-05-16T09:38:32.328Z,67.70
2018-05-16T09:40:59.776Z,66.40
2018-05-16T09:43:27.241Z,65.60
2018-05-16T09:45:54.847Z,64.50
2018-05-16T09:48:22.160Z,65.50
2018-05-16T09:50:49.609Z,67.10
2018-05-16T09:53:17.073Z,68.40
2018-05-16T09:55:44.541Z,68.00
2018-05-16T09:58:12.040Z,68.40
2018-05-16T10:00:39.500Z,68.90
2018-05-16T10:03:06.966Z,69.30
2018-05-16T10:05:34.408Z,70.70
2018-05-16T10:08:01.865Z,70.40
2018-05-16T10:10:29.312Z,67.80
2018-05-16T10:12:57.531Z,67.10
2018-05-16T10:15:24.991Z,67.00
2018-05-16T10:17:52.434Z,68.20
2018-05-16T10:20:20.739Z,67.60
2018-05-16T10:22:48.107Z,67.60
2018-05-16T10:25:16.327Z,69.20
2018-05-16T10:27:43.769Z,69.10
2018-05-16T10:30:11.229Z,70.90
2018-05-16T10:32:38.687Z,69.40
2018-05-16T10:35:06.916Z,67.90
2018-05-16T10:37:34.361Z,67.80
2018-05-16T10:40:01.827Z,68.40
2018-05-16T10:42:29.272Z,65.60
2018-05-16T10:44:57.492Z,65.80
2018-05-16T10:47:24.941Z,65.70
2018-05-16T10:49:53.168Z,66.40
2018-05-16T10:52:20.701Z,66.40
2018-05-16T10:54:48.103Z,64.70
2018-05-16T10:57:15.636Z,65.30
2018-05-16T10:59:43.085Z,65.50
2018-05-16T11:02:10.518Z,64.30
2018-05-16T11:04:37.981Z,64.00
2018-05-16T11:07:05.447Z,61.60
2018-05-16T11:09:32.907Z,59.50
2018-05-16T11:12:00.361Z,59.90
2018-05-16T11:14:27.816Z,59.40
2018-05-16T11:16:56.040Z,54.90
2018-05-16T11:19:23.492Z,54.90
2018-05-16T11:21:50.961Z,57.60
2018-05-16T11:24:18.411Z,57.30
2018-05-16T11:26:46.633Z,58.30
2018-05-16T11:29:14.089Z,58.30
2018-05-16T11:31:41.550Z,58.10
2018-05-16T11:34:09.754Z,57.40
2018-05-16T11:36:37.289Z,57.30
2018-05-16T11:39:04.676Z,59.70
2018-05-16T11:41:32.165Z,59.80
2018-05-16T11:43:59.615Z,58.90
2018-05-16T11:46:27.064Z,59.40
2018-05-16T11:48:55.349Z,59.30
2018-05-16T11:51:22.723Z,59.20
2018-05-16T11:53:50.933Z,55.80
2018-05-16T11:56:18.396Z,55.80
2018-05-16T11:58:45.845Z,56.10
2018-05-16T12:01:14.070Z,54.30
2018-05-16T12:03:41.516Z,54.20
2018-05-16T12:09:39.830Z,51.70
2018-05-16T12:12:08.273Z,53.70
2018-05-16T12:14:35.869Z,53.70
2018-05-16T12:17:03.233Z,53.90
2018-05-16T12:19:30.688Z,51.40
2018-05-16T12:21:58.149Z,54.30
2018-05-16T12:24:25.628Z,52.20
2018-05-16T12:26:53.088Z,53.10
2018-05-16T12:29:20.546Z,51.30
2018-05-16T12:31:47.988Z,51.60
2018-05-16T12:34:15.446Z,52.20
2018-05-16T12:36:43.678Z,54.40
2018-05-16T12:39:11.130Z,54.40
2018-05-16T12:41:38.584Z,53.00
2018-05-16T12:44:06.045Z,51.90
2018-05-16T12:46:34.344Z,53.80
2018-05-16T12:49:01.790Z,53.60
2018-05-16T12:51:30.001Z,49.50
2018-05-16T12:53:57.456Z,49.40
2018-05-16T12:56:24.905Z,52.40
2018-05-16T12:58:53.136Z,49.60
2018-05-16T13:01:20.572Z,49.50
2018-05-16T13:03:48.792Z,50.60
2018-05-16T13:06:16.241Z,50.50
2018-05-16T13:08:43.706Z,50.40
2018-05-16T13:11:11.158Z,47.90
2018-05-16T13:13:39.377Z,49.20
2018-05-16T13:16:06.839Z,49.10
2018-05-16T13:18:34.289Z,48.00
2018-05-16T13:21:02.505Z,47.20
2018-05-16T13:23:29.960Z,47.20
2018-05-16T13:25:57.416Z,45.60
2018-05-16T13:28:25.646Z,47.20
2018-05-16T13:30:53.092Z,47.20
2018-05-16T13:33:20.562Z,48.30
2018-05-16T13:35:48.009Z,46.70
2018-05-16T13:38:16.232Z,49.30
2018-05-16T13:40:43.685Z,48.70
2018-05-16T13:43:11.142Z,48.00
2018-05-16T13:45:38.597Z,45.80
2018-05-16T13:48:06.818Z,49.10
2018-05-16T13:50:34.273Z,49.00
2018-05-16T13:53:01.729Z,49.30
2018-05-16T13:55:29.944Z,49.30
2018-05-16T13:57:57.423Z,49.30
2018-05-16T14:00:24.869Z,49.00
2018-05-16T14:02:52.374Z,48.50
2018-05-16T14:05:19.828Z,50.60
2018-05-16T14:07:47.286Z,48.30
2018-05-16T14:10:14.745Z,46.30
2018-05-16T14:12:42.196Z,49.80
2018-05-16T14:15:10.467Z,49.20
2018-05-16T14:17:37.869Z,49.10
2018-05-16T14:20:05.343Z,51.00
2018-05-16T14:22:32.790Z,52.50
2018-05-16T14:25:00.247Z,51.10
2018-05-16T14:27:28.459Z,53.30
2018-05-16T14:29:55.924Z,53.20
2018-05-16T14:32:23.368Z,52.80
2018-05-16T14:34:51.597Z,49.70
2018-05-16T14:37:19.041Z,49.70
2018-05-16T14:39:46.514Z,50.40
2018-05-16T14:42:13.960Z,50.70
2018-05-16T14:44:42.177Z,49.40
2018-05-16T14:47:09.633Z,49.30
2018-05-16T14:49:37.084Z,51.50
2018-05-16T14:52:05.319Z,51.90
2018-05-16T14:54:32.765Z,51.90
2018-05-16T14:57:00.225Z,50.50
2018-05-16T14:59:27.673Z,50.60
2018-05-16T15:01:55.907Z,50.80
2018-05-16T15:04:23.361Z,51.30
2018-05-16T15:06:51.592Z,53.10
2018-05-16T15:09:19.049Z,53.10
2018-05-16T15:11:46.504Z,50.60
2018-05-16T15:14:13.961Z,50.20
2018-05-16T15:16:41.433Z,50.70
2018-05-16T15:19:08.900Z,51.60
2018-05-16T15:21:36.375Z,51.10
2018-05-16T15:24:03.825Z,50.90
2018-05-16T15:26:31.284Z,51.40
2018-05-16T15:28:59.520Z,50.40
2018-05-16T15:31:26.980Z,50.20
2018-05-16T15:33:54.442Z,48.10
2018-05-16T15:36:21.905Z,50.20
2018-05-16T15:38:49.353Z,51.00
2018-05-16T15:41:16.849Z,53.00
2018-05-16T15:43:44.293Z,53.30
2018-05-16T15:46:11.798Z,53.80
2018-05-16T15:48:39.253Z,55.10
2018-05-16T15:51:06.701Z,56.20
2018-05-16T15:53:34.924Z,57.40
2018-05-16T15:56:02.368Z,57.40
2018-05-16T15:58:29.837Z,56.90
2018-05-16T16:00:57.292Z,56.40
2018-05-16T16:03:25.515Z,59.90
2018-05-16T16:05:53.080Z,59.80
2018-05-16T16:08:20.553Z,62.20
2018-05-16T16:10:48.006Z,63.80
2018-05-16T16:13:15.483Z,65.40
2018-05-16T16:15:42.953Z,66.50
2018-05-16T16:18:10.413Z,67.50
2018-05-16T16:20:37.856Z,67.50
2018-05-16T16:23:06.094Z,67.90
2018-05-16T16:25:33.540Z,67.90
2018-05-16T16:28:01.008Z,67.70
2018-05-16T16:30:28.476Z,67.70
2018-05-16T16:32:55.932Z,67.80
2018-05-16T16:35:23.375Z,68.30
2018-05-16T16:37:50.842Z,68.70
2018-05-16T16:40:18.291Z,67.50
2018-05-16T16:42:45.758Z,67.80
2018-05-16T16:45:13.209Z,67.90
2018-05-16T16:47:40.657Z,68.60
2018-05-16T16:50:08.172Z,67.90
2018-05-16T16:52:36.354Z,67.60
2018-05-16T16:55:03.812Z,67.50
2018-05-16T16:57:31.264Z,66.50
2018-05-16T16:59:58.776Z,67.10
2018-05-16T17:02:26.177Z,66.30
2018-05-16T17:04:53.654Z,66.80
2018-05-16T17:07:21.110Z,66.80
2018-05-16T17:09:49.333Z,66.90
2018-05-16T17:12:16.779Z,66.80
2018-05-16T17:14:44.246Z,66.50
2018-05-16T17:17:11.697Z,66.40
2018-05-16T17:19:40.041Z,66.10
2018-05-16T17:22:07.488Z,66.10
2018-05-16T17:24:34.955Z,65.10
2018-05-16T17:27:02.401Z,65.60
2018-05-16T17:29:29.860Z,66.10
2018-05-16T17:31:58.189Z,66.20
2018-05-16T17:34:25.658Z,66.20
2018-05-16T17:36:53.111Z,67.90
2018-05-16T17:39:20.589Z,67.90
2018-05-16T17:41:48.047Z,68.00
2018-05-16T17:44:15.498Z,67.40
2018-05-16T17:46:43.716Z,66.60
2018-05-16T17:49:11.170Z,66.50
2018-05-16T17:51:38.620Z,66.90
2018-05-16T17:54:06.848Z,66.40
2018-05-16T17:56:34.312Z,66.40
2018-05-16T17:59:01.761Z,64.80
2018-05-16T18:01:29.213Z,64.50
2018-05-16T18:03:56.661Z,64.70
2018-05-16T18:06:24.117Z,65.20
2018-05-16T18:08:51.560Z,65.30
2018-05-16T18:11:19.017Z,66.10
2018-05-16T18:13:58.973Z,66.00
2018-05-16T18:16:38.384Z,66.20
2018-05-16T18:19:05.828Z,65.30
2018-05-16T18:21:33.315Z,65.90
2018-05-16T18:24:00.752Z,66.30
2018-05-16T18:26:28.221Z,66.50
2018-05-16T18:28:55.666Z,66.70
2018-05-16T18:31:23.135Z,66.70
2018-05-16T18:33:51.581Z,66.20
2018-05-16T18:36:19.038Z,66.20
2018-05-16T18:38:46.488Z,66.30
2018-05-16T18:41:14.609Z,66.80
2018-05-16T18:43:42.821Z,66.90
2018-05-16T18:46:11.045Z,67.60
2018-05-16T18:48:38.492Z,67.50
2018-05-16T18:51:05.965Z,68.10
2018-05-16T18:53:33.429Z,68.30
2018-05-16T18:56:01.044Z,68.20
2018-05-16T18:58:29.105Z,69.40
2018-05-16T19:00:56.561Z,69.30
2018-05-16T19:03:24.020Z,69.50
2018-05-16T19:05:51.478Z,69.50
2018-05-16T19:08:18.970Z,69.40
2018-05-16T19:10:46.404Z,69.30
2018-05-16T19:13:14.636Z,69.50
2018-05-16T19:15:42.082Z,69.40
2018-05-16T19:18:09.543Z,69.50
2018-05-16T19:20:37.275Z,69.20
2018-05-16T19:23:05.561Z,69.50
2018-05-16T19:25:32.997Z,69.50
2018-05-16T19:28:00.465Z,69.10
2018-05-16T19:30:27.921Z,69.00
2018-05-16T19:32:55.373Z,69.00
2018-05-16T19:35:23.589Z,69.40
2018-05-16T19:37:51.048Z,69.40
2018-05-16T19:40:18.506Z,69.40
2018-05-16T19:42:45.956Z,69.10
2018-05-16T19:45:14.168Z,68.60
2018-05-16T19:47:41.630Z,68.60
2018-05-16T19:50:09.078Z,69.00
2018-05-16T19:52:37.289Z,68.30
2018-05-16T19:55:04.751Z,68.30
2018-05-16T19:57:32.976Z,68.50
2018-05-16T20:00:00.841Z,68.50
2018-05-16T20:02:28.417Z,68.30
2018-05-16T20:04:55.868Z,68.80
2018-05-16T20:07:23.320Z,68.80
2018-05-16T20:09:51.589Z,68.90
2018-05-16T20:12:19.812Z,69.70
2018-05-16T20:14:47.310Z,69.10
2018-05-16T20:17:14.756Z,68.60
2018-05-16T20:19:42.224Z,68.60
2018-05-16T20:22:09.687Z,68.40
2018-05-16T20:24:37.149Z,68.30
2018-05-16T20:27:04.592Z,68.80
2018-05-16T20:29:32.917Z,68.60
2018-05-16T20:32:00.354Z,68.70
2018-05-16T20:34:28.576Z,67.50
2018-05-16T20:36:56.045Z,67.50
2018-05-16T20:39:23.497Z,68.20
2018-05-16T20:41:50.940Z,67.60
2018-05-16T20:44:19.168Z,68.10
2018-05-16T20:46:46.608Z,67.90
2018-05-16T20:49:14.837Z,68.80
2018-05-16T20:51:42.285Z,68.80
2018-05-16T20:54:09.762Z,68.70
2018-05-16T20:56:37.209Z,67.80
2018-05-16T20:59:05.424Z,67.60
2018-05-16T21:01:32.880Z,67.60
2018-05-16T21:04:00.333Z,67.90
2018-05-16T21:06:27.813Z,67.30
2018-05-16T21:08:55.262Z,67.30
2018-05-16T21:11:23.537Z,66.80
2018-05-16T21:13:50.994Z,66.70
2018-05-16T21:16:18.552Z,66.60
2018-05-16T21:18:45.993Z,66.80
2018-05-16T21:21:13.877Z,67.40
2018-05-16T21:23:41.325Z,67.50
2018-05-16T21:26:08.797Z,67.60
2018-05-16T21:28:36.297Z,67.20
2018-05-16T21:31:04.480Z,67.60
2018-05-16T21:33:31.950Z,67.50
2018-05-16T21:35:59.512Z,67.70
2018-05-16T21:38:26.960Z,67.90
2018-05-16T21:40:54.416Z,68.00
2018-05-16T21:43:22.629Z,68.40
2018-05-16T21:45:50.106Z,68.40
2018-05-16T21:48:17.559Z,68.70
2018-05-16T21:50:45.019Z,68.40
2018-05-16T21:53:12.476Z,68.40
2018-05-16T21:55:40.712Z,69.10
2018-05-16T21:58:08.160Z,69.10
2018-05-16T22:00:35.614Z,69.00
2018-05-16T22:03:03.085Z,69.40
2018-05-16T22:05:30.542Z,69.60
2018-05-16T22:07:58.783Z,70.30
2018-05-16T22:10:26.228Z,70.30
2018-05-16T22:12:53.690Z,69.90
2018-05-16T22:15:21.145Z,70.10
2018-05-16T22:17:48.607Z,70.60
2018-05-16T22:20:16.065Z,71.30
2018-05-16T22:22:44.293Z,70.70
2018-05-16T22:25:11.744Z,70.70
2018-05-16T22:27:39.217Z,70.80
2018-05-16T22:30:06.178Z,70.40
2018-05-16T22:32:39.372Z,70.20
2018-05-16T22:35:12.440Z,70.80
2018-05-16T22:37:45.684Z,70.50
2018-05-16T22:40:18.966Z,70.60
2018-05-16T22:42:46.892Z,71.40
2018-05-16T22:48:25.666Z,71.30
2018-05-16T22:50:53.120Z,71.30
2018-05-16T22:53:20.585Z,72.20
2018-05-16T22:55:48.074Z,73.10
2018-05-16T22:58:15.528Z,73.80
2018-05-16T23:00:42.982Z,74.60
2018-05-16T23:03:10.460Z,75.00
2018-05-16T23:05:37.904Z,75.90
2018-05-16T23:08:05.374Z,75.60
2018-05-16T23:10:33.598Z,75.10
2018-05-16T23:13:01.062Z,75.10
2018-05-16T23:15:28.529Z,75.10
2018-05-16T23:17:55.989Z,75.50
2018-05-16T23:20:23.460Z,75.40
2018-05-16T23:22:50.934Z,75.50
2018-05-16T23:25:18.410Z,76.20
2018-05-16T23:27:45.877Z,77.60
2018-05-16T23:30:13.336Z,78.20
2018-05-16T23:32:40.798Z,79.30
2018-05-16T23:35:08.258Z,79.70
2018-05-16T23:37:35.718Z,80.40
2018-05-16T23:40:04.141Z,81.50
2018-05-16T23:42:31.592Z,81.50
2018-05-16T23:44:59.057Z,81.90
2018-05-16T23:47:26.516Z,82.00
2018-05-16T23:49:53.986Z,82.20
2018-05-16T23:52:21.436Z,83.00
2018-05-16T23:54:48.910Z,82.70
2018-05-16T23:57:17.162Z,83.40
2018-05-16T23:59:44.628Z,83.40
